Flight Information

DEPARTURE
BURBANK, CA
Elevation:
778
Runways:
8/26 - 5802x150 - ASPH-CONC-E
15/33 - 6886x150 - ASPH-CONC-E
ATIS:
135.125 818-843-6633
Clearance Delivery:
118
Ground:
123.9
Tower:
BURBANK TOWER 118.7 132.325 (Helicopters)
DESTINATION
SAN DIEGO, CA
Elevation:
16
TPA:
1016 (est.)
Runways:
9/27 - 9400x200 - ASPH-CONC-E
ATIS:
134.8 619-298-0997
Tower:
LINDBERGH TOWER 118.3
Ground:
123.9


105.7 NM146° True-14° Var132° HDG

Flight Plan:
(click to file on line)

1. Type
2. Aircraft Identification
3. Aircraft Type / Special Equipment
4. True Airspeed
kts
5. Departure Airport
(ICAO code)
6. Arriving Airport
(ICAO code)
7. Cruising Altitude
ft
8. Alternate Airport
(ICAO code)
9. Route of Flight
10. Remarks


00:00:00 Departure ATIS: Destination ATIS:

Clearance Limit:
Route:
Altitude: Expect in minutes
Frequency:
Transponder: (7500 Hijack / 7600 Lost Comms / 7700 Emergency)


KBUR 181253Z 00000KT 10SM CLR 21/13 A2992 RMK AO2 SLP118 T02060133
Time: 2022-08-18T12:53:00Z
1660829837
Winds: calm
Visibility: 10.0 sm
Clouds (AGL): CLR
Temperature: 20.6 C
Dew Point: 13.3 C
Pressure: 29.920275 in Hgbr

KSAN 181251Z 35003KT 10SM OVC013 22/18 A2992 RMK AO2 SLP132 T02220183
Time: 2022-08-18T12:51:00Z
1660829837
Winds: 350 @ 3 kts
Visibility: 10.0 sm
Clouds (AGL): OVC 1300
Temperature: 22.2 C
Dew Point: 18.3 C
Pressure: 29.920275 in Hgbr


Notes:

Data extracted from FAA Digital Chart Supplement. Effective: 0901Z Thursday, 27 JAN 2022 to 0900z Thursday, 24 MAR 2022
Current ATIS data is provided courtisy of PilotEdge.